sensor_id;sensor_type;location;lat;lon;timestamp;temperature;humidity
18287;DHT22;9269;50.838;12.094;2023-09-30T00:00:26;22.40;46.20
18287;DHT22;9269;50.838;12.094;2023-09-30T00:02:54;22.40;46.80
18287;DHT22;9269;50.838;12.094;2023-09-30T00:05:24;22.40;46.70
18287;DHT22;9269;50.838;12.094;2023-09-30T00:07:53;22.40;46.60
18287;DHT22;9269;50.838;12.094;2023-09-30T00:10:22;22.30;46.60
18287;DHT22;9269;50.838;12.094;2023-09-30T00:12:50;22.30;46.80
18287;DHT22;9269;50.838;12.094;2023-09-30T00:15:19;22.10;46.80
18287;DHT22;9269;50.838;12.094;2023-09-30T00:17:49;22.10;47.00
18287;DHT22;9269;50.838;12.094;2023-09-30T00:20:18;22.10;46.90
18287;DHT22;9269;50.838;12.094;2023-09-30T00:22:48;22.10;46.70
18287;DHT22;9269;50.838;12.094;2023-09-30T00:25:17;22.10;46.30
18287;DHT22;9269;50.838;12.094;2023-09-30T00:27:47;22.20;46.30
18287;DHT22;9269;50.838;12.094;2023-09-30T00:30:16;22.20;46.50
18287;DHT22;9269;50.838;12.094;2023-09-30T00:32:44;22.20;46.40
18287;DHT22;9269;50.838;12.094;2023-09-30T00:35:14;22.20;45.70
18287;DHT22;9269;50.838;12.094;2023-09-30T00:37:43;22.20;46.30
18287;DHT22;9269;50.838;12.094;2023-09-30T00:40:13;22.30;46.00
18287;DHT22;9269;50.838;12.094;2023-09-30T00:42:42;22.30;45.90
18287;DHT22;9269;50.838;12.094;2023-09-30T00:45:11;22.30;46.00
18287;DHT22;9269;50.838;12.094;2023-09-30T00:47:40;22.20;45.60
18287;DHT22;9269;50.838;12.094;2023-09-30T00:50:13;22.20;46.00
18287;DHT22;9269;50.838;12.094;2023-09-30T00:52:42;22.20;45.60
18287;DHT22;9269;50.838;12.094;2023-09-30T00:55:13;22.30;46.10
18287;DHT22;9269;50.838;12.094;2023-09-30T00:57:42;22.30;45.70
18287;DHT22;9269;50.838;12.094;2023-09-30T01:00:12;22.30;46.00
18287;DHT22;9269;50.838;12.094;2023-09-30T01:02:40;22.30;45.80
18287;DHT22;9269;50.838;12.094;2023-09-30T01:05:11;22.20;45.60
18287;DHT22;9269;50.838;12.094;2023-09-30T01:07:40;22.20;45.10
18287;DHT22;9269;50.838;12.094;2023-09-30T01:10:09;22.10;45.00
18287;DHT22;9269;50.838;12.094;2023-09-30T01:12:40;22.20;45.30
18287;DHT22;9269;50.838;12.094;2023-09-30T01:15:10;22.30;45.50
18287;DHT22;9269;50.838;12.094;2023-09-30T01:17:39;22.20;45.60
18287;DHT22;9269;50.838;12.094;2023-09-30T01:20:09;22.20;45.50
18287;DHT22;9269;50.838;12.094;2023-09-30T01:22:40;22.20;45.70
18287;DHT22;9269;50.838;12.094;2023-09-30T01:25:09;22.10;46.10
18287;DHT22;9269;50.838;12.094;2023-09-30T01:27:39;22.10;46.40
18287;DHT22;9269;50.838;12.094;2023-09-30T01:30:08;22.10;46.40
18287;DHT22;9269;50.838;12.094;2023-09-30T01:32:38;22.00;46.20
18287;DHT22;9269;50.838;12.094;2023-09-30T01:35:08;21.90;46.40
18287;DHT22;9269;50.838;12.094;2023-09-30T01:37:37;21.80;46.30
18287;DHT22;9269;50.838;12.094;2023-09-30T01:40:08;21.80;46.80
18287;DHT22;9269;50.838;12.094;2023-09-30T01:42:39;21.80;46.60
18287;DHT22;9269;50.838;12.094;2023-09-30T01:45:08;21.70;46.50
18287;DHT22;9269;50.838;12.094;2023-09-30T01:47:41;21.60;46.30
18287;DHT22;9269;50.838;12.094;2023-09-30T01:50:11;21.60;46.10
18287;DHT22;9269;50.838;12.094;2023-09-30T01:52:40;21.60;46.30
18287;DHT22;9269;50.838;12.094;2023-09-30T01:55:11;21.50;46.00
18287;DHT22;9269;50.838;12.094;2023-09-30T01:57:40;21.40;46.00
18287;DHT22;9269;50.838;12.094;2023-09-30T02:00:10;21.50;46.10
18287;DHT22;9269;50.838;12.094;2023-09-30T02:02:41;21.40;46.10
18287;DHT22;9269;50.838;12.094;2023-09-30T02:05:12;21.50;45.80
18287;DHT22;9269;50.838;12.094;2023-09-30T02:07:42;21.50;45.70
18287;DHT22;9269;50.838;12.094;2023-09-30T02:10:16;21.50;45.60
18287;DHT22;9269;50.838;12.094;2023-09-30T02:12:48;21.60;45.70
18287;DHT22;9269;50.838;12.094;2023-09-30T02:15:18;21.50;45.40
18287;DHT22;9269;50.838;12.094;2023-09-30T02:17:51;21.40;45.50
18287;DHT22;9269;50.838;12.094;2023-09-30T02:20:19;21.40;45.00
18287;DHT22;9269;50.838;12.094;2023-09-30T02:22:53;21.40;44.50
18287;DHT22;9269;50.838;12.094;2023-09-30T02:25:23;21.40;44.80
18287;DHT22;9269;50.838;12.094;2023-09-30T02:27:52;21.30;45.10
18287;DHT22;9269;50.838;12.094;2023-09-30T02:30:20;21.40;44.50
18287;DHT22;9269;50.838;12.094;2023-09-30T02:32:49;21.30;44.40
18287;DHT22;9269;50.838;12.094;2023-09-30T02:35:18;21.30;44.30
18287;DHT22;9269;50.838;12.094;2023-09-30T02:37:48;21.30;44.50
18287;DHT22;9269;50.838;12.094;2023-09-30T02:40:19;21.30;44.60
18287;DHT22;9269;50.838;12.094;2023-09-30T02:42:51;21.30;44.20
18287;DHT22;9269;50.838;12.094;2023-09-30T02:45:21;21.30;44.20
18287;DHT22;9269;50.838;12.094;2023-09-30T02:47:53;21.30;44.10
18287;DHT22;9269;50.838;12.094;2023-09-30T02:50:22;21.20;44.40
18287;DHT22;9269;50.838;12.094;2023-09-30T02:52:52;21.20;44.00
18287;DHT22;9269;50.838;12.094;2023-09-30T02:55:21;21.20;44.50
18287;DHT22;9269;50.838;12.094;2023-09-30T02:57:54;21.30;44.10
18287;DHT22;9269;50.838;12.094;2023-09-30T03:00:23;21.30;43.60
18287;DHT22;9269;50.838;12.094;2023-09-30T03:02:54;21.20;43.80
18287;DHT22;9269;50.838;12.094;2023-09-30T03:05:23;21.30;43.70
18287;DHT22;9269;50.838;12.094;2023-09-30T03:07:53;21.20;43.60
18287;DHT22;9269;50.838;12.094;2023-09-30T03:10:22;21.20;43.50
18287;DHT22;9269;50.838;12.094;2023-09-30T03:12:53;21.10;43.70
18287;DHT22;9269;50.838;12.094;2023-09-30T03:15:22;21.20;43.40
18287;DHT22;9269;50.838;12.094;2023-09-30T03:17:51;21.10;43.20
18287;DHT22;9269;50.838;12.094;2023-09-30T03:20:20;21.10;43.50
18287;DHT22;9269;50.838;12.094;2023-09-30T03:22:49;21.20;43.50
18287;DHT22;9269;50.838;12.094;2023-09-30T03:25:19;21.10;43.10
18287;DHT22;9269;50.838;12.094;2023-09-30T03:27:48;21.10;43.40
18287;DHT22;9269;50.838;12.094;2023-09-30T03:30:18;21.00;43.60
18287;DHT22;9269;50.838;12.094;2023-09-30T03:32:50;21.10;43.70
18287;DHT22;9269;50.838;12.094;2023-09-30T03:35:21;21.00;43.30
18287;DHT22;9269;50.838;12.094;2023-09-30T03:37:55;21.00;43.10
18287;DHT22;9269;50.838;12.094;2023-09-30T03:40:27;21.00;43.00
18287;DHT22;9269;50.838;12.094;2023-09-30T03:43:01;20.90;44.20
18287;DHT22;9269;50.838;12.094;2023-09-30T03:45:32;20.90;43.10
18287;DHT22;9269;50.838;12.094;2023-09-30T03:48:05;20.80;44.30
18287;DHT22;9269;50.838;12.094;2023-09-30T03:50:34;20.80;44.20
18287;DHT22;9269;50.838;12.094;2023-09-30T03:53:06;20.60;44.20
18287;DHT22;9269;50.838;12.094;2023-09-30T03:55:37;20.80;44.40
18287;DHT22;9269;50.838;12.094;2023-09-30T03:58:08;20.70;43.90
18287;DHT22;9269;50.838;12.094;2023-09-30T04:00:38;20.70;44.50
18287;DHT22;9269;50.838;12.094;2023-09-30T04:03:07;20.70;44.60
18287;DHT22;9269;50.838;12.094;2023-09-30T04:05:36;20.60;44.40
18287;DHT22;9269;50.838;12.094;2023-09-30T04:08:06;20.60;44.40
18287;DHT22;9269;50.838;12.094;2023-09-30T04:10:36;20.50;44.60
18287;DHT22;9269;50.838;12.094;2023-09-30T04:13:07;20.50;44.30
18287;DHT22;9269;50.838;12.094;2023-09-30T04:15:38;20.50;44.60
18287;DHT22;9269;50.838;12.094;2023-09-30T04:18:08;20.50;44.50
18287;DHT22;9269;50.838;12.094;2023-09-30T04:20:37;20.50;44.80
18287;DHT22;9269;50.838;12.094;2023-09-30T04:23:07;20.50;45.00
18287;DHT22;9269;50.838;12.094;2023-09-30T04:25:38;20.40;45.00
18287;DHT22;9269;50.838;12.094;2023-09-30T04:28:07;20.50;45.20
18287;DHT22;9269;50.838;12.094;2023-09-30T04:30:39;20.40;45.90
18287;DHT22;9269;50.838;12.094;2023-09-30T04:33:11;20.50;45.50
18287;DHT22;9269;50.838;12.094;2023-09-30T04:35:41;20.50;45.40
18287;DHT22;9269;50.838;12.094;2023-09-30T04:38:10;20.40;45.20
18287;DHT22;9269;50.838;12.094;2023-09-30T04:40:40;20.40;45.60
18287;DHT22;9269;50.838;12.094;2023-09-30T04:43:14;20.40;45.40
18287;DHT22;9269;50.838;12.094;2023-09-30T04:45:47;20.40;45.10
18287;DHT22;9269;50.838;12.094;2023-09-30T04:48:18;20.30;45.30
18287;DHT22;9269;50.838;12.094;2023-09-30T04:50:48;20.30;45.40
18287;DHT22;9269;50.838;12.094;2023-09-30T04:53:18;20.30;45.90
18287;DHT22;9269;50.838;12.094;2023-09-30T04:55:48;20.20;46.10
18287;DHT22;9269;50.838;12.094;2023-09-30T04:58:17;20.30;45.80
18287;DHT22;9269;50.838;12.094;2023-09-30T05:00:48;20.20;45.60
18287;DHT22;9269;50.838;12.094;2023-09-30T05:03:17;20.10;45.70
18287;DHT22;9269;50.838;12.094;2023-09-30T05:05:47;20.10;45.60
18287;DHT22;9269;50.838;12.094;2023-09-30T05:08:15;20.10;46.00
18287;DHT22;9269;50.838;12.094;2023-09-30T05:10:44;20.10;46.30
18287;DHT22;9269;50.838;12.094;2023-09-30T05:13:13;20.10;46.30
18287;DHT22;9269;50.838;12.094;2023-09-30T05:15:42;20.00;46.30
18287;DHT22;9269;50.838;12.094;2023-09-30T05:18:12;20.00;46.30
18287;DHT22;9269;50.838;12.094;2023-09-30T05:20:41;19.90;46.40
18287;DHT22;9269;50.838;12.094;2023-09-30T05:23:11;19.90;46.20
18287;DHT22;9269;50.838;12.094;2023-09-30T05:25:42;19.90;46.00
18287;DHT22;9269;50.838;12.094;2023-09-30T05:28:10;19.90;45.80
18287;DHT22;9269;50.838;12.094;2023-09-30T05:30:41;19.90;45.60
18287;DHT22;9269;50.838;12.094;2023-09-30T05:33:12;19.80;45.90
18287;DHT22;9269;50.838;12.094;2023-09-30T05:35:42;19.80;46.40
18287;DHT22;9269;50.838;12.094;2023-09-30T05:38:11;19.80;46.20
18287;DHT22;9269;50.838;12.094;2023-09-30T05:40:40;19.80;45.90
18287;DHT22;9269;50.838;12.094;2023-09-30T05:43:10;19.70;46.20
18287;DHT22;9269;50.838;12.094;2023-09-30T05:45:41;19.70;46.00
18287;DHT22;9269;50.838;12.094;2023-09-30T05:48:19;19.70;45.60
18287;DHT22;9269;50.838;12.094;2023-09-30T05:50:48;19.70;45.70
18287;DHT22;9269;50.838;12.094;2023-09-30T05:53:17;19.70;45.60
18287;DHT22;9269;50.838;12.094;2023-09-30T05:55:46;19.70;45.10
18287;DHT22;9269;50.838;12.094;2023-09-30T05:58:15;19.50;45.20
18287;DHT22;9269;50.838;12.094;2023-09-30T06:00:44;19.60;45.50
18287;DHT22;9269;50.838;12.094;2023-09-30T06:03:13;19.60;45.80
18287;DHT22;9269;50.838;12.094;2023-09-30T06:05:43;19.60;46.20
18287;DHT22;9269;50.838;12.094;2023-09-30T06:08:14;19.60;46.40
18287;DHT22;9269;50.838;12.094;2023-09-30T06:10:43;19.60;46.30
18287;DHT22;9269;50.838;12.094;2023-09-30T06:13:13;19.60;46.40
18287;DHT22;9269;50.838;12.094;2023-09-30T06:15:43;19.70;46.00
18287;DHT22;9269;50.838;12.094;2023-09-30T06:18:15;19.60;46.00
18287;DHT22;9269;50.838;12.094;2023-09-30T06:20:45;19.60;45.70
18287;DHT22;9269;50.838;12.094;2023-09-30T06:23:14;19.70;45.70
18287;DHT22;9269;50.838;12.094;2023-09-30T06:25:43;19.80;45.70
18287;DHT22;9269;50.838;12.094;2023-09-30T06:28:11;19.80;45.30
18287;DHT22;9269;50.838;12.094;2023-09-30T06:30:41;19.80;45.40
18287;DHT22;9269;50.838;12.094;2023-09-30T06:33:13;19.90;45.20
18287;DHT22;9269;50.838;12.094;2023-09-30T06:35:45;19.90;44.70
18287;DHT22;9269;50.838;12.094;2023-09-30T06:38:20;19.90;45.20
18287;DHT22;9269;50.838;12.094;2023-09-30T06:40:49;19.90;44.90
18287;DHT22;9269;50.838;12.094;2023-09-30T06:43:18;19.90;45.10
18287;DHT22;9269;50.838;12.094;2023-09-30T06:45:48;19.90;45.20
18287;DHT22;9269;50.838;12.094;2023-09-30T06:48:17;19.90;45.50
18287;DHT22;9269;50.838;12.094;2023-09-30T06:50:48;19.90;45.30
18287;DHT22;9269;50.838;12.094;2023-09-30T06:53:17;20.00;45.20
18287;DHT22;9269;50.838;12.094;2023-09-30T06:55:46;20.00;45.00
18287;DHT22;9269;50.838;12.094;2023-09-30T06:58:15;20.00;44.80
18287;DHT22;9269;50.838;12.094;2023-09-30T07:00:51;20.00;44.80
18287;DHT22;9269;50.838;12.094;2023-09-30T07:03:21;20.00;45.00
18287;DHT22;9269;50.838;12.094;2023-09-30T07:05:55;20.00;44.80
18287;DHT22;9269;50.838;12.094;2023-09-30T07:08:27;20.10;44.40
18287;DHT22;9269;50.838;12.094;2023-09-30T07:10:57;20.10;44.20
18287;DHT22;9269;50.838;12.094;2023-09-30T07:13:26;20.10;44.40
18287;DHT22;9269;50.838;12.094;2023-09-30T07:15:56;20.20;44.40
18287;DHT22;9269;50.838;12.094;2023-09-30T07:18:27;20.20;44.50
18287;DHT22;9269;50.838;12.094;2023-09-30T07:20:58;20.20;44.30
18287;DHT22;9269;50.838;12.094;2023-09-30T07:23:30;20.30;44.20
18287;DHT22;9269;50.838;12.094;2023-09-30T07:25:59;20.20;43.90
18287;DHT22;9269;50.838;12.094;2023-09-30T07:28:28;20.30;44.00
18287;DHT22;9269;50.838;12.094;2023-09-30T07:30:57;20.20;43.90
18287;DHT22;9269;50.838;12.094;2023-09-30T07:33:26;20.30;43.90
18287;DHT22;9269;50.838;12.094;2023-09-30T07:35:55;20.30;43.60
18287;DHT22;9269;50.838;12.094;2023-09-30T07:38:25;20.40;44.10
18287;DHT22;9269;50.838;12.094;2023-09-30T07:40:54;20.30;43.60
18287;DHT22;9269;50.838;12.094;2023-09-30T07:43:23;20.40;43.60
18287;DHT22;9269;50.838;12.094;2023-09-30T07:45:52;20.50;43.60
18287;DHT22;9269;50.838;12.094;2023-09-30T07:48:24;20.50;43.80
18287;DHT22;9269;50.838;12.094;2023-09-30T07:50:55;20.50;43.70
18287;DHT22;9269;50.838;12.094;2023-09-30T07:53:28;20.50;43.70
18287;DHT22;9269;50.838;12.094;2023-09-30T07:55:57;20.60;43.60
18287;DHT22;9269;50.838;12.094;2023-09-30T07:58:25;20.50;43.40
18287;DHT22;9269;50.838;12.094;2023-09-30T08:00:55;20.70;43.60
18287;DHT22;9269;50.838;12.094;2023-09-30T08:03:24;20.60;43.50
18287;DHT22;9269;50.838;12.094;2023-09-30T08:05:54;20.60;43.20
18287;DHT22;9269;50.838;12.094;2023-09-30T08:08:23;20.60;43.50
18287;DHT22;9269;50.838;12.094;2023-09-30T08:10:52;20.70;43.50
18287;DHT22;9269;50.838;12.094;2023-09-30T08:13:22;20.70;43.10
18287;DHT22;9269;50.838;12.094;2023-09-30T08:15:51;20.80;43.20
18287;DHT22;9269;50.838;12.094;2023-09-30T08:18:22;20.80;42.90
18287;DHT22;9269;50.838;12.094;2023-09-30T08:20:51;20.90;43.10
18287;DHT22;9269;50.838;12.094;2023-09-30T08:23:19;20.90;41.50
18287;DHT22;9269;50.838;12.094;2023-09-30T08:25:48;20.90;41.50
18287;DHT22;9269;50.838;12.094;2023-09-30T08:28:18;20.90;41.20
18287;DHT22;9269;50.838;12.094;2023-09-30T08:30:47;21.00;41.00
18287;DHT22;9269;50.838;12.094;2023-09-30T08:33:18;21.20;40.70
18287;DHT22;9269;50.838;12.094;2023-09-30T08:35:46;21.30;40.50
18287;DHT22;9269;50.838;12.094;2023-09-30T08:38:18;21.40;40.10
18287;DHT22;9269;50.838;12.094;2023-09-30T08:40:47;21.50;40.00
18287;DHT22;9269;50.838;12.094;2023-09-30T08:43:23;21.50;40.40
18287;DHT22;9269;50.838;12.094;2023-09-30T08:45:55;21.70;39.90
18287;DHT22;9269;50.838;12.094;2023-09-30T08:48:26;21.70;39.90
18287;DHT22;9269;50.838;12.094;2023-09-30T08:50:57;21.70;39.70
18287;DHT22;9269;50.838;12.094;2023-09-30T08:53:28;21.60;39.60
18287;DHT22;9269;50.838;12.094;2023-09-30T08:55:58;21.60;39.80
18287;DHT22;9269;50.838;12.094;2023-09-30T08:58:29;21.70;39.80
18287;DHT22;9269;50.838;12.094;2023-09-30T09:00:58;22.00;39.40
18287;DHT22;9269;50.838;12.094;2023-09-30T09:03:28;22.10;39.40
18287;DHT22;9269;50.838;12.094;2023-09-30T09:05:59;22.20;38.80
18287;DHT22;9269;50.838;12.094;2023-09-30T09:08:28;22.20;38.70
18287;DHT22;9269;50.838;12.094;2023-09-30T09:10:57;22.30;37.90
18287;DHT22;9269;50.838;12.094;2023-09-30T09:13:26;22.30;37.50
18287;DHT22;9269;50.838;12.094;2023-09-30T09:16:10;22.30;37.70
18287;DHT22;9269;50.838;12.094;2023-09-30T09:18:41;22.10;37.60
18287;DHT22;9269;50.838;12.094;2023-09-30T09:21:16;22.00;37.60
18287;DHT22;9269;50.838;12.094;2023-09-30T09:23:55;22.00;37.30
18287;DHT22;9269;50.838;12.094;2023-09-30T09:26:26;22.10;37.00
18287;DHT22;9269;50.838;12.094;2023-09-30T09:28:57;22.40;36.60
18287;DHT22;9269;50.838;12.094;2023-09-30T09:31:30;22.70;36.60
18287;DHT22;9269;50.838;12.094;2023-09-30T09:34:14;22.90;36.60
18287;DHT22;9269;50.838;12.094;2023-09-30T09:36:43;23.00;36.10
18287;DHT22;9269;50.838;12.094;2023-09-30T09:39:13;23.10;36.10
18287;DHT22;9269;50.838;12.094;2023-09-30T09:41:49;23.00;36.20
18287;DHT22;9269;50.838;12.094;2023-09-30T09:44:20;23.10;35.90
18287;DHT22;9269;50.838;12.094;2023-09-30T09:46:50;23.10;35.40
18287;DHT22;9269;50.838;12.094;2023-09-30T09:49:20;23.20;35.40
18287;DHT22;9269;50.838;12.094;2023-09-30T09:51:50;23.40;34.80
18287;DHT22;9269;50.838;12.094;2023-09-30T09:54:21;23.50;34.70
18287;DHT22;9269;50.838;12.094;2023-09-30T09:56:53;23.60;35.00
18287;DHT22;9269;50.838;12.094;2023-09-30T09:59:25;23.80;33.30
18287;DHT22;9269;50.838;12.094;2023-09-30T10:01:56;23.90;31.60
18287;DHT22;9269;50.838;12.094;2023-09-30T10:04:26;23.90;31.70
18287;DHT22;9269;50.838;12.094;2023-09-30T10:06:55;24.00;31.80
18287;DHT22;9269;50.838;12.094;2023-09-30T10:09:25;24.20;32.00
18287;DHT22;9269;50.838;12.094;2023-09-30T10:11:58;24.10;32.00
18287;DHT22;9269;50.838;12.094;2023-09-30T10:14:30;24.30;31.90
18287;DHT22;9269;50.838;12.094;2023-09-30T10:17:01;24.20;31.80
18287;DHT22;9269;50.838;12.094;2023-09-30T10:19:31;24.30;31.70
18287;DHT22;9269;50.838;12.094;2023-09-30T10:22:22;24.40;31.60
18287;DHT22;9269;50.838;12.094;2023-09-30T10:24:53;24.40;31.10
18287;DHT22;9269;50.838;12.094;2023-09-30T10:27:29;24.50;30.40
18287;DHT22;9269;50.838;12.094;2023-09-30T10:30:07;24.60;31.20
18287;DHT22;9269;50.838;12.094;2023-09-30T10:33:11;24.70;30.50
18287;DHT22;9269;50.838;12.094;2023-09-30T10:35:45;24.90;29.80
18287;DHT22;9269;50.838;12.094;2023-09-30T10:38:38;24.90;29.40
18287;DHT22;9269;50.838;12.094;2023-09-30T10:41:10;24.90;29.70
18287;DHT22;9269;50.838;12.094;2023-09-30T10:43:40;24.90;29.80
18287;DHT22;9269;50.838;12.094;2023-09-30T10:46:31;24.90;29.90
18287;DHT22;9269;50.838;12.094;2023-09-30T10:49:31;25.10;29.60
18287;DHT22;9269;50.838;12.094;2023-09-30T10:52:00;25.20;29.70
18287;DHT22;9269;50.838;12.094;2023-09-30T10:54:31;25.30;29.40
18287;DHT22;9269;50.838;12.094;2023-09-30T10:57:00;25.30;29.20
18287;DHT22;9269;50.838;12.094;2023-09-30T10:59:31;25.40;29.30
18287;DHT22;9269;50.838;12.094;2023-09-30T11:02:03;25.50;28.80
18287;DHT22;9269;50.838;12.094;2023-09-30T11:04:46;25.50;28.50
18287;DHT22;9269;50.838;12.094;2023-09-30T11:07:22;25.50;28.50
18287;DHT22;9269;50.838;12.094;2023-09-30T11:09:53;25.50;28.00
18287;DHT22;9269;50.838;12.094;2023-09-30T11:12:21;25.50;28.20
18287;DHT22;9269;50.838;12.094;2023-09-30T11:14:59;25.70;28.30
18287;DHT22;9269;50.838;12.094;2023-09-30T11:17:28;25.80;27.50
18287;DHT22;9269;50.838;12.094;2023-09-30T11:19:58;25.80;26.50
18287;DHT22;9269;50.838;12.094;2023-09-30T11:22:28;25.90;26.90
18287;DHT22;9269;50.838;12.094;2023-09-30T11:24:58;25.80;26.90
18287;DHT22;9269;50.838;12.094;2023-09-30T11:27:26;25.90;27.00
18287;DHT22;9269;50.838;12.094;2023-09-30T11:29:55;26.00;27.20
18287;DHT22;9269;50.838;12.094;2023-09-30T11:35:25;26.00;26.80
18287;DHT22;9269;50.838;12.094;2023-09-30T11:37:55;26.10;26.40
18287;DHT22;9269;50.838;12.094;2023-09-30T11:40:26;26.10;25.80
18287;DHT22;9269;50.838;12.094;2023-09-30T11:43:09;26.20;25.70
18287;DHT22;9269;50.838;12.094;2023-09-30T11:45:40;26.20;26.00
18287;DHT22;9269;50.838;12.094;2023-09-30T11:48:17;26.20;25.80
18287;DHT22;9269;50.838;12.094;2023-09-30T11:50:49;26.20;25.80
18287;DHT22;9269;50.838;12.094;2023-09-30T11:53:20;26.30;24.70
18287;DHT22;9269;50.838;12.094;2023-09-30T11:55:49;26.30;25.20
18287;DHT22;9269;50.838;12.094;2023-09-30T11:58:17;26.30;25.20
18287;DHT22;9269;50.838;12.094;2023-09-30T12:00:47;26.40;24.00
18287;DHT22;9269;50.838;12.094;2023-09-30T12:03:18;26.40;23.80
18287;DHT22;9269;50.838;12.094;2023-09-30T12:05:49;26.40;24.20
18287;DHT22;9269;50.838;12.094;2023-09-30T12:08:18;26.50;24.40
18287;DHT22;9269;50.838;12.094;2023-09-30T12:10:48;26.50;23.50
18287;DHT22;9269;50.838;12.094;2023-09-30T12:13:17;26.40;23.40
18287;DHT22;9269;50.838;12.094;2023-09-30T12:15:46;26.40;22.70
18287;DHT22;9269;50.838;12.094;2023-09-30T12:18:16;26.50;23.70
18287;DHT22;9269;50.838;12.094;2023-09-30T12:20:53;26.50;23.60
18287;DHT22;9269;50.838;12.094;2023-09-30T12:23:22;26.60;23.90
18287;DHT22;9269;50.838;12.094;2023-09-30T12:25:51;26.50;23.50
18287;DHT22;9269;50.838;12.094;2023-09-30T12:28:39;26.50;22.90
18287;DHT22;9269;50.838;12.094;2023-09-30T12:31:08;26.40;22.80
18287;DHT22;9269;50.838;12.094;2023-09-30T12:33:41;26.40;23.40
18287;DHT22;9269;50.838;12.094;2023-09-30T12:36:11;26.40;23.30
18287;DHT22;9269;50.838;12.094;2023-09-30T12:38:40;26.40;22.70
18287;DHT22;9269;50.838;12.094;2023-09-30T12:41:10;26.40;23.00
18287;DHT22;9269;50.838;12.094;2023-09-30T12:43:38;26.40;22.70
18287;DHT22;9269;50.838;12.094;2023-09-30T12:46:09;26.40;21.90
18287;DHT22;9269;50.838;12.094;2023-09-30T12:48:41;26.40;22.30
18287;DHT22;9269;50.838;12.094;2023-09-30T12:51:11;26.50;22.70
18287;DHT22;9269;50.838;12.094;2023-09-30T12:53:42;26.40;22.70
18287;DHT22;9269;50.838;12.094;2023-09-30T12:56:12;26.40;22.30
18287;DHT22;9269;50.838;12.094;2023-09-30T12:58:41;26.30;23.00
18287;DHT22;9269;50.838;12.094;2023-09-30T13:01:09;26.20;22.90
18287;DHT22;9269;50.838;12.094;2023-09-30T13:03:49;26.20;22.40
18287;DHT22;9269;50.838;12.094;2023-09-30T13:06:20;26.20;22.70
18287;DHT22;9269;50.838;12.094;2023-09-30T13:08:48;26.20;21.50
18287;DHT22;9269;50.838;12.094;2023-09-30T13:11:17;26.10;22.20
18287;DHT22;9269;50.838;12.094;2023-09-30T13:13:46;26.10;22.80
18287;DHT22;9269;50.838;12.094;2023-09-30T13:16:14;26.10;22.10
18287;DHT22;9269;50.838;12.094;2023-09-30T13:18:43;26.00;22.20
18287;DHT22;9269;50.838;12.094;2023-09-30T13:21:11;25.90;21.80
18287;DHT22;9269;50.838;12.094;2023-09-30T13:23:42;25.90;21.70
18287;DHT22;9269;50.838;12.094;2023-09-30T13:26:10;25.90;21.00
18287;DHT22;9269;50.838;12.094;2023-09-30T13:28:40;25.80;21.10
18287;DHT22;9269;50.838;12.094;2023-09-30T13:31:08;25.90;21.40
18287;DHT22;9269;50.838;12.094;2023-09-30T13:33:38;25.90;21.90
18287;DHT22;9269;50.838;12.094;2023-09-30T13:36:07;26.00;21.60
18287;DHT22;9269;50.838;12.094;2023-09-30T13:38:36;26.20;21.80
18287;DHT22;9269;50.838;12.094;2023-09-30T13:41:06;26.10;20.90
18287;DHT22;9269;50.838;12.094;2023-09-30T13:43:35;26.20;21.90
18287;DHT22;9269;50.838;12.094;2023-09-30T13:46:05;26.10;22.10
18287;DHT22;9269;50.838;12.094;2023-09-30T13:48:34;26.20;21.90
18287;DHT22;9269;50.838;12.094;2023-09-30T13:51:07;26.20;22.00
18287;DHT22;9269;50.838;12.094;2023-09-30T13:53:37;26.10;21.90
18287;DHT22;9269;50.838;12.094;2023-09-30T13:56:06;26.20;22.30
18287;DHT22;9269;50.838;12.094;2023-09-30T13:58:36;26.20;22.30
18287;DHT22;9269;50.838;12.094;2023-09-30T14:01:07;26.20;21.50
18287;DHT22;9269;50.838;12.094;2023-09-30T14:03:39;26.20;21.40
18287;DHT22;9269;50.838;12.094;2023-09-30T14:06:10;26.20;21.30
18287;DHT22;9269;50.838;12.094;2023-09-30T14:08:41;26.10;22.00
18287;DHT22;9269;50.838;12.094;2023-09-30T14:11:12;26.20;21.70
18287;DHT22;9269;50.838;12.094;2023-09-30T14:13:42;26.30;21.60
18287;DHT22;9269;50.838;12.094;2023-09-30T14:16:16;26.20;22.30
18287;DHT22;9269;50.838;12.094;2023-09-30T14:18:51;26.10;21.90
18287;DHT22;9269;50.838;12.094;2023-09-30T14:21:21;26.00;20.10
18287;DHT22;9269;50.838;12.094;2023-09-30T14:23:50;26.00;20.90
18287;DHT22;9269;50.838;12.094;2023-09-30T14:26:21;25.90;21.40
18287;DHT22;9269;50.838;12.094;2023-09-30T14:28:49;26.00;21.10
18287;DHT22;9269;50.838;12.094;2023-09-30T14:31:18;25.80;21.80
18287;DHT22;9269;50.838;12.094;2023-09-30T14:33:47;25.80;21.80
18287;DHT22;9269;50.838;12.094;2023-09-30T14:36:20;25.80;22.30
18287;DHT22;9269;50.838;12.094;2023-09-30T14:38:52;25.80;22.00
18287;DHT22;9269;50.838;12.094;2023-09-30T14:41:42;25.80;21.90
18287;DHT22;9269;50.838;12.094;2023-09-30T14:44:10;25.80;21.70
18287;DHT22;9269;50.838;12.094;2023-09-30T14:46:40;25.60;22.30
18287;DHT22;9269;50.838;12.094;2023-09-30T14:49:10;25.60;22.00
18287;DHT22;9269;50.838;12.094;2023-09-30T14:51:39;25.50;22.20
18287;DHT22;9269;50.838;12.094;2023-09-30T14:54:08;25.50;21.80
18287;DHT22;9269;50.838;12.094;2023-09-30T14:56:38;25.40;21.60
18287;DHT22;9269;50.838;12.094;2023-09-30T14:59:08;25.30;21.70
18287;DHT22;9269;50.838;12.094;2023-09-30T15:01:38;25.20;22.00
18287;DHT22;9269;50.838;12.094;2023-09-30T15:04:07;25.10;22.00
18287;DHT22;9269;50.838;12.094;2023-09-30T15:06:37;25.00;22.10
18287;DHT22;9269;50.838;12.094;2023-09-30T15:09:06;25.00;22.20
18287;DHT22;9269;50.838;12.094;2023-09-30T15:11:40;25.00;22.70
18287;DHT22;9269;50.838;12.094;2023-09-30T15:14:11;24.90;22.70
18287;DHT22;9269;50.838;12.094;2023-09-30T15:16:41;24.80;23.00
18287;DHT22;9269;50.838;12.094;2023-09-30T15:19:11;24.80;22.90
18287;DHT22;9269;50.838;12.094;2023-09-30T15:21:39;24.70;23.10
18287;DHT22;9269;50.838;12.094;2023-09-30T15:24:08;24.70;23.20
18287;DHT22;9269;50.838;12.094;2023-09-30T15:26:38;24.70;23.50
18287;DHT22;9269;50.838;12.094;2023-09-30T15:29:07;24.60;23.40
18287;DHT22;9269;50.838;12.094;2023-09-30T15:31:37;24.60;23.30
18287;DHT22;9269;50.838;12.094;2023-09-30T15:34:07;24.50;23.60
18287;DHT22;9269;50.838;12.094;2023-09-30T15:36:38;24.50;23.70
18287;DHT22;9269;50.838;12.094;2023-09-30T15:39:07;24.40;23.80
18287;DHT22;9269;50.838;12.094;2023-09-30T15:41:35;24.30;24.10
18287;DHT22;9269;50.838;12.094;2023-09-30T15:44:05;24.20;24.20
18287;DHT22;9269;50.838;12.094;2023-09-30T15:46:34;24.10;24.10
18287;DHT22;9269;50.838;12.094;2023-09-30T15:49:05;24.10;24.30
18287;DHT22;9269;50.838;12.094;2023-09-30T15:51:34;23.90;24.70
18287;DHT22;9269;50.838;12.094;2023-09-30T15:54:03;23.80;24.70